Time;durP1;ratioP1;P1;durP2;ratioP2;P2;SDS_P1;SDS_P2;PMS_P1;PMS_P2;Temp;Humidity;BMP_temperature;BMP_pressure;BME280_temperature;BME280_humidity;BME280_pressure;Samples;Min_cycle;Max_cycle;Signal;HPM_P1;HPM_P2
2024/03/09 00:01:19;;;;;;;26.43;15.90;;;3.60;56.40;;;;;;5060658;28;20578;-67
2024/03/09 00:03:46;;;;;;;25.27;15.13;;;3.50;56.30;;;;;;5063475;28;20500;-68
2024/03/09 00:06:14;;;;;;;27.87;15.77;;;3.50;56.30;;;;;;5054838;28;20451;-68
2024/03/09 00:08:43;;;;;;;27.60;14.70;;;3.50;56.30;;;;;;5071622;28;20461;-67
2024/03/09 00:11:09;;;;;;;31.73;16.17;;;3.50;56.30;;;;;;5054940;28;20454;-67
2024/03/09 00:13:37;;;;;;;30.70;16.57;;;3.40;56.30;;;;;;5062865;28;20853;-67
2024/03/09 00:16:04;;;;;;;26.90;16.40;;;3.40;56.30;;;;;;5054797;28;20821;-67
2024/03/09 00:18:32;;;;;;;28.27;15.73;;;3.50;56.30;;;;;;5062665;28;20959;-67
2024/03/09 00:20:59;;;;;;;26.73;14.63;;;3.50;56.30;;;;;;5071518;28;20501;-67
2024/03/09 00:23:27;;;;;;;30.33;16.60;;;3.50;56.30;;;;;;5062434;28;20477;-68
2024/03/09 00:25:55;;;;;;;24.57;14.90;;;3.50;56.30;;;;;;5063445;28;20556;-67
2024/03/09 00:28:24;;;;;;;28.37;15.20;;;3.50;56.30;;;;;;5054970;28;20459;-67
2024/03/09 00:30:51;;;;;;;26.57;15.47;;;3.50;56.30;;;;;;5073923;28;20461;-67
2024/03/09 00:33:18;;;;;;;24.93;16.20;;;3.50;56.30;;;;;;5068664;28;20490;-67
2024/03/09 00:35:45;;;;;;;24.10;13.70;;;3.50;56.30;;;;;;5063282;28;20457;-67
2024/03/09 00:38:12;;;;;;;23.40;15.37;;;3.40;56.30;;;;;;5060025;28;20454;-67
2024/03/09 00:40:40;;;;;;;28.73;15.00;;;3.40;56.20;;;;;;5074179;28;20458;-68
2024/03/09 00:43:07;;;;;;;24.20;14.60;;;3.40;56.20;;;;;;5069687;28;20482;-68
2024/03/09 00:45:33;;;;;;;30.67;14.73;;;3.30;56.10;;;;;;5062285;28;20532;-67
2024/03/09 00:48:00;;;;;;;31.20;16.00;;;3.40;56.30;;;;;;5074463;28;20452;-68
2024/03/09 00:50:27;;;;;;;26.23;16.10;;;3.40;56.30;;;;;;5058640;28;20448;-67
2024/03/09 00:52:54;;;;;;;26.77;15.60;;;3.40;56.20;;;;;;5062170;28;20876;-67
2024/03/09 00:55:22;;;;;;;27.03;14.90;;;3.40;56.30;;;;;;5054029;28;20451;-68
2024/03/09 00:57:50;;;;;;;22.13;14.20;;;3.50;56.30;;;;;;5072682;28;20458;-67
2024/03/09 01:00:18;;;;;;;23.70;13.67;;;3.50;56.30;;;;;;5074015;28;20523;-67
2024/03/09 01:02:48;;;;;;;34.80;15.83;;;3.50;56.30;;;;;;5063935;28;20869;-67
2024/03/09 01:05:19;;;;;;;25.57;16.70;;;3.50;56.30;;;;;;5067507;28;20457;-67
2024/03/09 01:07:46;;;;;;;24.87;13.33;;;3.50;56.30;;;;;;5073729;28;20458;-68
2024/03/09 01:10:13;;;;;;;21.93;14.10;;;3.60;56.40;;;;;;5068172;28;20451;-67
2024/03/09 01:12:40;;;;;;;22.30;14.23;;;3.80;56.40;;;;;;5062937;28;20599;-67
2024/03/09 01:15:10;;;;;;;25.10;15.00;;;3.80;55.10;;;;;;5060832;28;20447;-68
2024/03/09 01:17:37;;;;;;;27.40;15.50;;;3.90;52.70;;;;;;5070569;28;20980;-67
2024/03/09 01:20:06;;;;;;;24.03;13.40;;;4.00;48.80;;;;;;5070024;28;20459;-67
2024/03/09 01:22:33;;;;;;;22.30;12.27;;;4.00;48.50;;;;;;5062066;28;20482;-67
2024/03/09 01:25:00;;;;;;;24.17;14.27;;;4.00;50.10;;;;;;5069897;28;20458;-67
2024/03/09 01:27:27;;;;;;;26.33;14.13;;;4.10;48.60;;;;;;5060722;28;20450;-68
2024/03/09 01:29:58;;;;;;;23.77;13.63;;;4.10;49.30;;;;;;5073457;28;20453;-68
2024/03/09 01:32:27;;;;;;;26.37;13.90;;;4.20;48.50;;;;;;5073490;28;20446;-67
2024/03/09 01:34:54;;;;;;;16.70;11.67;;;4.10;48.40;;;;;;5072790;28;20462;-67
2024/03/09 01:37:22;;;;;;;20.40;11.67;;;4.10;48.40;;;;;;5067222;28;20454;-67
2024/03/09 01:39:48;;;;;;;20.80;13.23;;;4.20;48.50;;;;;;5063489;28;20450;-67
2024/03/09 01:42:18;;;;;;;21.83;14.00;;;4.30;48.60;;;;;;5059131;28;20475;-68
2024/03/09 01:44:45;;;;;;;25.53;13.33;;;4.20;49.30;;;;;;5053217;28;20451;-66
2024/03/09 01:47:13;;;;;;;20.97;13.40;;;4.20;48.50;;;;;;5057922;28;20462;-68
2024/03/09 01:49:41;;;;;;;23.17;13.30;;;4.30;48.60;;;;;;5064151;28;20458;-68
2024/03/09 01:52:09;;;;;;;23.93;12.30;;;4.20;48.50;;;;;;5053310;28;20450;-67
2024/03/09 01:54:39;;;;;;;20.57;13.17;;;4.30;48.60;;;;;;5053124;28;20451;-68
2024/03/09 01:57:07;;;;;;;21.80;12.17;;;4.30;48.60;;;;;;5072444;28;20960;-68
2024/03/09 01:59:34;;;;;;;20.80;12.93;;;4.20;48.50;;;;;;5072664;28;20466;-67
2024/03/09 02:02:01;;;;;;;21.17;14.33;;;4.30;48.60;;;;;;5073153;28;20486;-68
2024/03/09 02:04:29;;;;;;;25.67;13.90;;;4.40;48.60;;;;;;5057189;28;20475;-68
2024/03/09 02:06:58;;;;;;;26.10;13.07;;;4.50;48.20;;;;;;5071996;28;20454;-68
2024/03/09 02:09:26;;;;;;;24.80;11.67;;;4.60;45.10;;;;;;5065631;28;20455;-67
2024/03/09 02:11:53;;;;;;;21.90;12.90;;;4.70;42.70;;;;;;5063531;28;20446;-67
2024/03/09 02:14:21;;;;;;;23.27;12.10;;;4.70;40.30;;;;;;5065980;28;20475;-68
2024/03/09 02:16:49;;;;;;;19.13;11.40;;;4.70;42.10;;;;;;5052471;28;20459;-68
2024/03/09 02:19:16;;;;;;;21.43;12.70;;;4.70;40.30;;;;;;5066617;28;20454;-68
2024/03/09 02:21:46;;;;;;;21.93;13.23;;;4.80;40.50;;;;;;5062408;28;20798;-68
2024/03/09 02:24:21;;;;;;;18.60;11.90;;;4.80;40.40;;;;;;5052287;28;20486;-67
2024/03/09 02:26:51;;;;;;;21.67;12.43;;;4.80;40.60;;;;;;5070381;28;20477;-68
2024/03/09 02:29:23;;;;;;;20.57;11.97;;;4.80;41.30;;;;;;5072740;28;20553;-68
2024/03/09 02:31:50;;;;;;;20.80;12.37;;;4.80;40.40;;;;;;5056001;28;20939;-68
2024/03/09 02:34:17;;;;;;;25.43;11.40;;;4.90;40.40;;;;;;5058028;28;20478;-68
2024/03/09 02:36:44;;;;;;;19.27;12.40;;;4.90;40.40;;;;;;5069720;28;20477;-68
2024/03/09 02:39:11;;;;;;;22.67;13.07;;;4.90;40.40;;;;;;5072188;28;20460;-66
2024/03/09 02:41:37;;;;;;;21.13;12.03;;;4.90;40.40;;;;;;5072172;28;20838;-67
2024/03/09 02:44:06;;;;;;;19.80;11.40;;;4.90;40.40;;;;;;5059727;28;20475;-68
2024/03/09 02:46:33;;;;;;;20.77;12.37;;;4.90;40.50;;;;;;5060388;28;20455;-68
2024/03/09 02:48:59;;;;;;;23.57;11.33;;;4.80;42.70;;;;;;5055490;28;20450;-67
2024/03/09 02:51:26;;;;;;;23.67;13.27;;;4.80;45.60;;;;;;5071900;28;20456;-68
2024/03/09 02:53:53;;;;;;;21.23;12.57;;;4.80;41.00;;;;;;5069000;28;20977;-68
2024/03/09 02:56:21;;;;;;;19.97;12.43;;;4.80;40.40;;;;;;5051752;28;20451;-67
2024/03/09 02:58:49;;;;;;;20.10;12.97;;;4.80;42.80;;;;;;5060921;28;20545;-68
2024/03/09 03:01:18;;;;;;;22.90;13.53;;;4.80;44.20;;;;;;5072040;28;20454;-68
2024/03/09 03:03:46;;;;;;;24.87;13.83;;;4.80;41.20;;;;;;5070115;28;20489;-68
2024/03/09 03:06:14;;;;;;;21.90;13.07;;;4.80;42.10;;;;;;5056818;28;20458;-67
2024/03/09 03:08:41;;;;;;;25.53;12.53;;;4.80;43.00;;;;;;5071799;28;20838;-68
2024/03/09 03:11:08;;;;;;;19.47;12.40;;;4.80;40.40;;;;;;5072183;28;20456;-68
2024/03/09 03:13:35;;;;;;;21.53;11.97;;;4.80;40.40;;;;;;5063414;28;20562;-68
2024/03/09 03:16:01;;;;;;;23.20;13.20;;;4.80;40.40;;;;;;5051432;28;20542;-68
2024/03/09 03:18:30;;;;;;;21.17;12.90;;;4.80;40.40;;;;;;5051961;28;20902;-68
2024/03/09 03:20:56;;;;;;;20.63;11.57;;;4.80;40.40;;;;;;5071103;28;20450;-68
2024/03/09 03:23:23;;;;;;;23.20;11.90;;;4.90;40.50;;;;;;5071424;28;20482;-68
2024/03/09 03:25:50;;;;;;;27.13;13.17;;;4.80;40.40;;;;;;5069124;28;20461;-68
2024/03/09 03:28:17;;;;;;;22.30;12.87;;;4.80;40.40;;;;;;5057655;28;20465;-68
2024/03/09 03:30:45;;;;;;;22.13;12.07;;;4.70;40.40;;;;;;5055322;28;20497;-67
2024/03/09 03:33:11;;;;;;;23.60;12.37;;;4.80;40.40;;;;;;5058577;28;20467;-68
2024/03/09 03:35:39;;;;;;;22.13;12.40;;;4.80;40.40;;;;;;5056056;28;20455;-68
2024/03/09 03:38:07;;;;;;;25.47;12.90;;;4.80;40.40;;;;;;5063248;28;20850;-68
2024/03/09 03:40:33;;;;;;;23.83;13.20;;;4.80;40.40;;;;;;5072097;28;20450;-68
2024/03/09 03:43:02;;;;;;;20.23;13.57;;;4.80;40.40;;;;;;5071805;28;20859;-68
2024/03/09 03:45:29;;;;;;;22.90;12.50;;;4.80;40.40;;;;;;5062645;28;20450;-68
2024/03/09 03:47:56;;;;;;;19.43;11.10;;;4.70;40.30;;;;;;5072286;28;20462;-67
2024/03/09 03:50:24;;;;;;;21.43;12.30;;;4.80;40.40;;;;;;5062357;28;20458;-67
2024/03/09 03:52:52;;;;;;;18.47;12.17;;;4.70;40.30;;;;;;5073145;28;20470;-68
2024/03/09 03:55:20;;;;;;;19.83;12.03;;;4.70;40.30;;;;;;5054885;28;20965;-68
2024/03/09 03:57:47;;;;;;;17.87;11.07;;;4.60;40.20;;;;;;5065241;28;20494;-68
2024/03/09 04:00:16;;;;;;;24.90;13.30;;;4.60;40.20;;;;;;5075208;28;20515;-67
2024/03/09 04:02:43;;;;;;;23.87;13.57;;;4.60;40.20;;;;;;5074799;28;20920;-67
2024/03/09 04:05:10;;;;;;;19.93;12.23;;;4.60;40.20;;;;;;5070343;28;20451;-68
2024/03/09 04:07:36;;;;;;;19.37;11.27;;;4.60;40.20;;;;;;5055598;28;20451;-67
2024/03/09 04:10:13;;;;;;;19.70;13.27;;;4.70;40.30;;;;;;5067351;28;20460;-68
2024/03/09 04:12:40;;;;;;;21.20;12.33;;;4.70;40.30;;;;;;5074687;28;20875;-67
2024/03/09 04:15:08;;;;;;;24.93;14.47;;;4.80;40.40;;;;;;5061689;28;20504;-68
2024/03/09 04:17:35;;;;;;;22.27;13.90;;;4.80;40.40;;;;;;5054969;28;20808;-67
2024/03/09 04:20:04;;;;;;;18.97;11.80;;;4.70;40.30;;;;;;5075010;28;20454;-68
2024/03/09 04:22:32;;;;;;;20.50;12.10;;;4.80;40.40;;;;;;5074621;28;20482;-67
2024/03/09 04:25:01;;;;;;;19.63;12.10;;;4.80;40.40;;;;;;5062890;28;20462;-68
2024/03/09 04:27:29;;;;;;;25.27;12.40;;;4.80;40.40;;;;;;5054557;28;20831;-68
2024/03/09 04:29:56;;;;;;;25.33;12.97;;;4.80;40.40;;;;;;5074381;28;20458;-68
2024/03/09 04:32:25;;;;;;;23.87;13.13;;;4.90;41.30;;;;;;5059708;28;20461;-67
2024/03/09 04:34:52;;;;;;;23.57;12.13;;;4.90;40.40;;;;;;5056557;28;20881;-68
2024/03/09 04:37:25;;;;;;;19.73;12.10;;;4.80;40.40;;;;;;5060462;28;20862;-68
2024/03/09 04:39:53;;;;;;;24.87;13.50;;;4.80;40.40;;;;;;5071119;28;20477;-68
2024/03/09 04:42:20;;;;;;;18.30;11.90;;;4.80;40.90;;;;;;5060177;28;20511;-68
2024/03/09 04:44:52;;;;;;;23.10;12.07;;;4.80;45.20;;;;;;5072028;28;20457;-68
2024/03/09 04:47:19;;;;;;;20.80;12.83;;;4.80;46.70;;;;;;5060393;28;20462;-68
2024/03/09 04:49:47;;;;;;;20.50;12.90;;;4.80;49.10;;;;;;5074242;28;20562;-67
2024/03/09 04:52:14;;;;;;;21.30;13.13;;;4.80;46.50;;;;;;5060620;28;20462;-67
2024/03/09 04:54:43;;;;;;;19.70;12.43;;;4.80;49.00;;;;;;5054642;28;20451;-68
2024/03/09 04:57:14;;;;;;;21.70;12.60;;;4.80;45.30;;;;;;5073967;28;20454;-68
2024/03/09 04:59:42;;;;;;;24.63;13.83;;;4.80;45.10;;;;;;5073817;28;20508;-68
2024/03/09 05:02:10;;;;;;;28.10;13.27;;;4.90;40.50;;;;;;5074193;28;20941;-68
2024/03/09 05:04:37;;;;;;;17.20;12.30;;;5.00;40.50;;;;;;5073376;28;20478;-68
2024/03/09 05:07:04;;;;;;;23.53;13.10;;;5.10;40.60;;;;;;5053559;28;20731;-68
2024/03/09 05:09:31;;;;;;;21.27;11.70;;;5.10;40.70;;;;;;5061926;28;20455;-68
2024/03/09 05:11:58;;;;;;;24.77;12.93;;;5.20;40.70;;;;;;5057363;28;20941;-68
2024/03/09 05:14:25;;;;;;;19.43;12.60;;;5.30;40.80;;;;;;5074603;28;20549;-65
2024/03/09 05:16:52;;;;;;;20.17;12.33;;;5.30;40.80;;;;;;5073586;28;20455;-65
2024/03/09 05:19:20;;;;;;;25.40;15.43;;;5.30;40.80;;;;;;5059657;28;20462;-65
2024/03/09 05:21:47;;;;;;;23.27;13.90;;;5.40;40.80;;;;;;5071680;28;20462;-65
2024/03/09 05:24:14;;;;;;;22.80;12.40;;;5.40;40.80;;;;;;5068408;28;20578;-66
2024/03/09 05:26:42;;;;;;;21.40;13.37;;;5.40;40.80;;;;;;5062291;28;20981;-65
2024/03/09 05:29:11;;;;;;;23.60;14.43;;;5.50;40.70;;;;;;5073697;28;20458;-65
2024/03/09 05:31:38;;;;;;;22.77;14.10;;;5.50;40.80;;;;;;5056542;28;20451;-66
2024/03/09 05:34:05;;;;;;;22.47;13.13;;;5.40;40.80;;;;;;5057538;28;20856;-65
2024/03/09 05:36:33;;;;;;;30.30;16.50;;;5.40;40.90;;;;;;5073172;28;20454;-66
2024/03/09 05:39:00;;;;;;;31.83;14.03;;;5.50;40.90;;;;;;5073443;28;20457;-66
2024/03/09 05:41:26;;;;;;;21.10;14.00;;;5.50;39.30;;;;;;5072169;28;20458;-65
2024/03/09 05:43:55;;;;;;;20.97;13.67;;;5.50;38.70;;;;;;5061150;28;21006;-66
2024/03/09 05:46:22;;;;;;;23.53;14.60;;;5.50;40.70;;;;;;5067536;28;20466;-66
2024/03/09 05:48:50;;;;;;;27.00;13.33;;;5.50;34.80;;;;;;5062746;28;20451;-65
2024/03/09 05:51:18;;;;;;;22.60;12.43;;;5.50;32.60;;;;;;5067410;28;20874;-66
2024/03/09 05:53:49;;;;;;;22.60;12.60;;;5.50;32.70;;;;;;5056352;28;20998;-66
2024/03/09 05:56:16;;;;;;;22.70;12.93;;;5.50;35.90;;;;;;5072723;28;20877;-66
2024/03/09 05:58:43;;;;;;;23.23;13.57;;;5.50;33.00;;;;;;5072745;28;20486;-65
2024/03/09 06:01:10;;;;;;;22.83;13.27;;;5.50;32.10;;;;;;5059767;28;20463;-65
2024/03/09 06:03:39;;;;;;;22.47;12.50;;;5.50;32.10;;;;;;5068853;28;20482;-65
2024/03/09 06:06:07;;;;;;;25.07;13.57;;;5.50;32.20;;;;;;5056925;28;20486;-65
2024/03/09 06:08:34;;;;;;;24.90;14.57;;;5.50;32.20;;;;;;5072877;28;20507;-65
2024/03/09 06:11:03;;;;;;;23.60;13.47;;;5.50;32.10;;;;;;5060905;28;20456;-66
2024/03/09 06:13:31;;;;;;;17.27;11.40;;;5.50;33.00;;;;;;5068361;28;20467;-66
2024/03/09 06:15:58;;;;;;;27.20;13.97;;;5.50;32.20;;;;;;5071642;28;20454;-66
2024/03/09 06:18:25;;;;;;;20.23;12.37;;;5.50;32.30;;;;;;5072470;28;20504;-65
2024/03/09 06:20:52;;;;;;;23.17;13.70;;;5.40;32.40;;;;;;5072555;28;20452;-65
2024/03/09 06:23:19;;;;;;;22.40;13.80;;;5.40;35.90;;;;;;5072473;28;20486;-68
2024/03/09 06:25:46;;;;;;;29.97;16.40;;;5.40;38.90;;;;;;5072019;28;20450;-68
2024/03/09 06:28:15;;;;;;;27.07;14.67;;;5.40;36.20;;;;;;5072438;28;20894;-68
2024/03/09 06:30:42;;;;;;;21.87;13.60;;;5.40;39.50;;;;;;5062969;28;20465;-68
2024/03/09 06:33:09;;;;;;;22.80;13.07;;;5.40;40.50;;;;;;5065340;28;20474;-68
2024/03/09 06:35:36;;;;;;;25.43;13.23;;;5.40;40.80;;;;;;5055372;28;20760;-68
2024/03/09 06:38:07;;;;;;;29.37;14.37;;;5.40;40.50;;;;;;5072564;28;20460;-68
2024/03/09 06:40:36;;;;;;;32.50;13.77;;;5.50;40.80;;;;;;5056062;28;20538;-68
2024/03/09 06:43:05;;;;;;;20.77;10.53;;;5.50;40.90;;;;;;5063989;28;20470;-68
2024/03/09 06:45:33;;;;;;;24.53;15.43;;;5.50;39.90;;;;;;5064129;28;20455;-68
2024/03/09 06:48:00;;;;;;;26.47;15.33;;;5.50;40.80;;;;;;5055765;28;20450;-68
2024/03/09 06:50:28;;;;;;;23.90;12.90;;;5.40;40.50;;;;;;5056520;28;20466;-67
2024/03/09 06:52:55;;;;;;;27.73;15.90;;;5.40;40.20;;;;;;5068508;28;20486;-68
2024/03/09 06:55:24;;;;;;;24.97;14.23;;;5.40;40.80;;;;;;5057661;28;20485;-68
2024/03/09 06:57:52;;;;;;;24.87;14.53;;;5.40;40.60;;;;;;5054655;28;20840;-67
2024/03/09 07:00:20;;;;;;;21.33;13.60;;;5.40;40.80;;;;;;5071812;28;20469;-66
2024/03/09 07:02:49;;;;;;;25.33;16.20;;;5.40;40.80;;;;;;5061034;28;20467;-68
2024/03/09 07:05:17;;;;;;;27.33;14.13;;;5.50;40.80;;;;;;5063891;28;20482;-67
2024/03/09 07:07:44;;;;;;;20.63;13.30;;;5.50;40.60;;;;;;5070240;28;20557;-68
2024/03/09 07:10:11;;;;;;;24.87;12.67;;;5.50;40.80;;;;;;5055264;28;21003;-68
2024/03/09 07:12:40;;;;;;;22.70;14.23;;;5.60;41.00;;;;;;5063053;28;20503;-68
2024/03/09 07:15:11;;;;;;;24.40;13.60;;;5.60;41.00;;;;;;5064165;28;20477;-67
2024/03/09 07:17:38;;;;;;;26.80;16.87;;;5.60;41.00;;;;;;5054671;28;20455;-68
2024/03/09 07:20:12;;;;;;;24.97;14.50;;;5.60;40.90;;;;;;5051406;28;20455;-68
2024/03/09 07:22:40;;;;;;;24.50;13.20;;;5.50;40.90;;;;;;5062986;28;20474;-68
2024/03/09 07:25:09;;;;;;;24.80;13.77;;;5.60;41.00;;;;;;5069029;28;20862;-68
2024/03/09 07:27:36;;;;;;;28.23;15.17;;;5.60;40.90;;;;;;5068458;28;20457;-66
2024/03/09 07:30:08;;;;;;;25.13;14.30;;;5.60;41.00;;;;;;5071673;28;20841;-67
2024/03/09 07:32:35;;;;;;;23.87;14.70;;;5.80;41.10;;;;;;5063250;28;20475;-66
2024/03/09 07:35:05;;;;;;;25.20;14.63;;;5.80;36.20;;;;;;5063161;28;20454;-68
2024/03/09 07:37:33;;;;;;;30.33;15.03;;;5.90;39.70;;;;;;5071694;28;20539;-68
2024/03/09 07:40:00;;;;;;;26.07;15.37;;;5.90;39.70;;;;;;5070922;28;20457;-68
2024/03/09 07:42:26;;;;;;;25.00;14.23;;;6.10;32.70;;;;;;5056237;28;20451;-68
2024/03/09 07:44:54;;;;;;;26.37;15.47;;;6.10;37.30;;;;;;5053408;28;20478;-68
2024/03/09 07:47:22;;;;;;;22.47;13.90;;;6.20;32.80;;;;;;5057090;28;20455;-68
2024/03/09 07:49:49;;;;;;;25.10;13.80;;;6.20;32.90;;;;;;5053131;28;20452;-68
2024/03/09 07:52:16;;;;;;;27.70;14.23;;;6.30;32.00;;;;;;5071414;28;20964;-67
2024/03/09 07:54:44;;;;;;;25.30;15.37;;;6.40;31.20;;;;;;5054648;28;20451;-67
2024/03/09 07:57:14;;;;;;;25.87;15.47;;;6.50;33.00;;;;;;5057829;28;20459;-67
2024/03/09 07:59:41;;;;;;;25.00;14.23;;;6.50;32.90;;;;;;5068620;28;20527;-68
2024/03/09 08:02:10;;;;;;;27.23;15.40;;;6.60;33.00;;;;;;5071234;28;20953;-68
2024/03/09 08:04:37;;;;;;;23.93;14.30;;;6.60;33.10;;;;;;5071119;28;20543;-65
2024/03/09 08:07:04;;;;;;;28.20;16.00;;;6.60;32.20;;;;;;5064901;28;20451;-66
2024/03/09 08:09:31;;;;;;;22.27;13.50;;;6.70;29.60;;;;;;5059365;28;20461;-66
2024/03/09 08:11:59;;;;;;;24.80;13.13;;;6.70;26.40;;;;;;5062070;28;20462;-66
2024/03/09 08:14:33;;;;;;;21.77;13.70;;;6.80;25.80;;;;;;5055248;28;20467;-65
2024/03/09 08:17:00;;;;;;;26.07;13.60;;;6.80;27.50;;;;;;5042192;28;20508;-65
2024/03/09 08:19:27;;;;;;;25.73;13.77;;;6.90;26.70;;;;;;5066165;28;20454;-66
2024/03/09 08:21:54;;;;;;;23.20;14.87;;;7.00;25.70;;;;;;5073514;28;20476;-65
2024/03/09 08:24:22;;;;;;;23.70;13.00;;;7.00;25.70;;;;;;5074163;28;20485;-66
2024/03/09 08:26:48;;;;;;;23.77;13.17;;;7.10;25.80;;;;;;5063523;28;20451;-66
2024/03/09 08:29:16;;;;;;;24.23;14.00;;;7.20;25.90;;;;;;5062324;28;20451;-66
2024/03/09 08:31:43;;;;;;;24.03;14.60;;;7.20;25.90;;;;;;5064300;28;20458;-66
2024/03/09 08:34:10;;;;;;;25.87;14.20;;;7.40;26.70;;;;;;5074537;28;20470;-66
2024/03/09 08:36:37;;;;;;;24.27;14.40;;;7.40;26.00;;;;;;5057611;28;20451;-67
2024/03/09 08:39:04;;;;;;;23.05;14.93;;;7.50;26.10;;;;;;5073816;28;20452;-68
2024/03/09 08:41:32;;;;;;;26.00;15.23;;;7.60;26.10;;;;;;5058098;28;20575;-67
2024/03/09 08:43:59;;;;;;;27.10;14.53;;;7.70;26.20;;;;;;5053919;28;20474;-66
2024/03/09 08:46:27;;;;;;;30.47;14.63;;;7.90;26.40;;;;;;5053686;28;20463;-70
2024/03/09 08:48:54;;;;;;;30.03;14.60;;;8.00;26.40;;;;;;5073293;28;20458;-67
2024/03/09 08:51:21;;;;;;;24.53;14.73;;;8.10;26.50;;;;;;5068659;28;20460;-67
2024/03/09 08:53:48;;;;;;;21.50;12.40;;;8.20;26.50;;;;;;5063670;28;20565;-67
2024/03/09 08:56:17;;;;;;;29.47;15.20;;;8.30;26.40;;;;;;5060265;28;20451;-67
2024/03/09 08:58:44;;;;;;;25.00;12.70;;;8.30;26.90;;;;;;5066384;28;20826;-67
2024/03/09 09:01:10;;;;;;;29.13;16.33;;;8.50;26.30;;;;;;5069170;28;20467;-66
2024/03/09 09:03:39;;;;;;;26.13;14.20;;;8.60;19.70;;;;;;5052734;28;20479;-66
2024/03/09 09:06:08;;;;;;;24.98;15.85;;;9.10;20.10;;;;;;5059896;28;20455;-66
2024/03/09 09:08:36;;;;;;;23.70;13.80;;;10.00;19.80;;;;;;5052900;28;20565;-66
2024/03/09 09:11:04;;;;;;;26.50;16.00;;;10.70;14.30;;;;;;5054082;28;20455;-68
2024/03/09 09:13:31;;;;;;;27.20;14.70;;;10.80;12.70;;;;;;5062035;28;20707;-67
2024/03/09 09:15:58;;;;;;;20.43;12.90;;;10.90;12.40;;;;;;5054019;28;20921;-66
2024/03/09 09:18:25;;;;;;;20.40;13.63;;;11.00;7.20;;;;;;5053817;28;20448;-65
2024/03/09 09:20:53;;;;;;;24.00;12.70;;;11.10;6.10;;;;;;5070714;28;20447;-65
2024/03/09 09:23:20;;;;;;;24.07;15.07;;;11.30;7.70;;;;;;5054742;28;20467;-66
2024/03/09 09:25:46;;;;;;;23.50;14.30;;;11.50;6.10;;;;;;5061475;28;20481;-66
2024/03/09 09:28:15;;;;;;;21.50;14.70;;;11.60;6.10;;;;;;5059248;28;20464;-65
2024/03/09 09:30:44;;;;;;;22.03;13.20;;;11.70;4.20;;;;;;5056494;28;20455;-65
2024/03/09 09:33:13;;;;;;;23.47;14.20;;;11.90;1.00;;;;;;5055140;28;20833;-66
2024/03/09 09:35:40;;;;;;;24.80;14.03;;;11.90;1.00;;;;;;5053552;28;20463;-65
2024/03/09 09:38:08;;;;;;;22.40;13.00;;;12.00;1.00;;;;;;5053244;28;20455;-68
2024/03/09 09:40:35;;;;;;;25.90;14.30;;;12.50;1.00;;;;;;5053583;28;20982;-66
2024/03/09 09:43:03;;;;;;;18.87;12.00;;;12.30;1.00;;;;;;5061800;28;20512;-64
2024/03/09 09:45:34;;;;;;;20.90;14.13;;;12.60;1.00;;;;;;5060883;28;20921;-65
2024/03/09 09:48:02;;;;;;;19.60;11.90;;;12.70;1.00;;;;;;5073631;28;20446;-66
2024/03/09 09:50:34;;;;;;;24.70;14.73;;;12.80;1.00;;;;;;5073946;28;20549;-65
2024/03/09 09:53:03;;;;;;;22.90;13.80;;;13.10;1.00;;;;;;5053465;28;20557;-66
2024/03/09 09:55:31;;;;;;;22.17;13.57;;;13.40;1.00;;;;;;5060742;28;20446;-66
2024/03/09 09:57:58;;;;;;;21.07;13.03;;;13.60;1.00;;;;;;5058155;28;20450;-68
2024/03/09 10:00:26;;;;;;;20.03;12.10;;;13.60;1.00;;;;;;5061286;28;20462;-68
2024/03/09 10:02:58;;;;;;;27.87;12.87;;;13.50;1.00;;;;;;5061832;28;20467;-66
2024/03/09 10:05:28;;;;;;;23.30;13.20;;;13.40;1.00;;;;;;5059425;28;20486;-68
2024/03/09 10:07:59;;;;;;;22.40;13.63;;;13.30;1.00;;;;;;5072669;28;21026;-69
2024/03/09 10:10:31;;;;;;;23.57;13.43;;;12.80;1.00;;;;;;5065830;28;20973;-68
2024/03/09 10:13:05;;;;;;;19.60;12.80;;;12.70;1.00;;;;;;5063235;28;20470;-68
2024/03/09 10:15:33;;;;;;;21.13;13.50;;;12.40;1.00;;;;;;5052030;28;20823;-69
2024/03/09 10:18:00;;;;;;;20.73;13.03;;;12.50;1.00;;;;;;5066130;28;20454;-65
2024/03/09 10:20:29;;;;;;;21.57;13.20;;;13.00;1.00;;;;;;5054385;28;20447;-66
2024/03/09 10:22:57;;;;;;;20.83;13.90;;;13.60;1.00;;;;;;5052190;28;20476;-66
2024/03/09 10:25:25;;;;;;;24.70;13.17;;;14.40;1.00;;;;;;5051293;28;20999;-66
2024/03/09 10:27:58;;;;;;;23.17;13.20;;;14.60;1.00;;;;;;5052469;28;20463;-65
2024/03/09 10:30:25;;;;;;;19.60;12.80;;;14.80;1.00;;;;;;5052116;28;20469;-66
2024/03/09 10:32:53;;;;;;;22.63;14.57;;;15.00;1.00;;;;;;5062774;28;20470;-66
2024/03/09 10:35:20;;;;;;;20.67;13.60;;;14.90;1.00;;;;;;5065553;28;20530;-66
2024/03/09 10:37:55;;;;;;;24.40;13.93;;;14.60;1.00;;;;;;5054838;28;20458;-66
2024/03/09 10:40:23;;;;;;;18.20;12.27;;;14.80;1.00;;;;;;5061907;28;20457;-65
2024/03/09 10:42:51;;;;;;;22.63;14.13;;;15.40;1.00;;;;;;5053132;28;20475;-66
2024/03/09 10:45:20;;;;;;;20.67;13.67;;;15.40;1.00;;;;;;5057875;28;20454;-66
2024/03/09 10:47:49;;;;;;;19.63;13.20;;;14.80;1.00;;;;;;5062165;28;20446;-66
2024/03/09 10:50:23;;;;;;;20.27;13.07;;;14.80;1.00;;;;;;5061410;28;20457;-66
2024/03/09 10:53:11;;;;;;;21.53;13.03;;;14.70;1.00;;;;;;5059086;28;20532;-65
2024/03/09 10:55:44;;;;;;;19.50;13.60;;;14.40;1.00;;;;;;5066809;28;20478;-65
2024/03/09 10:58:15;;;;;;;21.97;13.27;;;14.60;1.00;;;;;;5051970;28;20459;-66
2024/03/09 11:00:49;;;;;;;25.73;15.70;;;14.80;1.00;;;;;;5051785;28;20465;-66
2024/03/09 11:03:20;;;;;;;18.33;12.20;;;14.70;1.00;;;;;;5050269;28;20481;-66
2024/03/09 11:05:49;;;;;;;21.50;13.80;;;14.90;1.00;;;;;;5060758;28;20463;-66
2024/03/09 11:08:16;;;;;;;21.33;11.93;;;14.60;1.00;;;;;;5056954;28;20505;-66
2024/03/09 11:10:46;;;;;;;23.90;12.97;;;14.50;1.00;;;;;;5055615;28;20953;-66
2024/03/09 11:13:15;;;;;;;20.80;11.50;;;14.30;1.00;;;;;;5051421;28;20982;-66
2024/03/09 11:15:44;;;;;;;20.37;12.80;;;14.70;1.00;;;;;;5051413;28;20479;-66
2024/03/09 11:18:11;;;;;;;18.67;13.30;;;14.90;1.00;;;;;;5059530;28;20447;-66
2024/03/09 11:20:48;;;;;;;21.17;15.10;;;15.80;1.00;;;;;;5061184;28;20454;-65
2024/03/09 11:23:15;;;;;;;23.37;14.43;;;16.00;1.00;;;;;;5051626;28;20474;-65
2024/03/09 11:25:48;;;;;;;20.53;12.10;;;16.50;1.00;;;;;;5059114;28;21042;-69
2024/03/09 11:28:14;;;;;;;19.40;12.30;;;17.60;1.00;;;;;;5065767;28;20446;-66
2024/03/09 11:31:10;;;;;;;24.00;13.60;;;18.40;1.00;;;;;;5068724;28;20901;-66
2024/03/09 11:33:41;;;;;;;22.90;13.00;;;18.70;1.00;;;;;;5051370;28;21065;-66
2024/03/09 11:36:43;;;;;;;19.67;13.07;;;19.40;1.00;;;;;;5066566;28;21016;-67
2024/03/09 11:39:11;;;;;;;20.63;14.37;;;19.00;1.00;;;;;;5057856;28;20453;-66
2024/03/09 11:41:44;;;;;;;22.50;15.23;;;19.20;1.00;;;;;;5052873;28;20882;-66
2024/03/09 11:44:11;;;;;;;20.20;13.00;;;19.10;1.00;;;;;;5064537;28;20470;-66
2024/03/09 11:46:39;;;;;;;21.07;11.53;;;18.90;1.00;;;;;;5071087;28;20486;-66
2024/03/09 11:49:07;;;;;;;20.90;13.63;;;19.00;1.00;;;;;;5071395;28;20462;-68
2024/03/09 11:51:35;;;;;;;19.77;13.00;;;18.90;1.00;;;;;;5064090;28;20455;-66
2024/03/09 11:54:07;;;;;;;31.07;13.03;;;19.00;1.00;;;;;;5053321;28;20845;-65
2024/03/09 11:56:35;;;;;;;24.40;14.30;;;18.70;1.00;;;;;;5054915;28;20478;-66
2024/03/09 11:59:02;;;;;;;21.10;13.30;;;18.80;1.00;;;;;;5062430;28;20509;-67
2024/03/09 12:01:29;;;;;;;22.00;13.97;;;18.70;1.00;;;;;;5055277;28;20439;-66
2024/03/09 12:03:59;;;;;;;17.00;12.07;;;18.60;1.00;;;;;;5069174;28;20545;-66
2024/03/09 12:06:27;;;;;;;19.07;12.07;;;18.50;1.00;;;;;;5060064;28;20447;-66
2024/03/09 12:08:55;;;;;;;20.23;12.23;;;18.40;1.00;;;;;;5062900;28;20839;-66
2024/03/09 12:11:23;;;;;;;17.13;10.93;;;18.80;1.00;;;;;;5063016;28;20649;-66
2024/03/09 12:13:50;;;;;;;18.03;11.47;;;19.00;1.00;;;;;;5071674;28;20473;-66
2024/03/09 12:16:18;;;;;;;18.30;12.63;;;18.90;1.00;;;;;;5054923;28;20998;-66
2024/03/09 12:18:47;;;;;;;17.47;10.83;;;19.00;1.00;;;;;;5056122;28;20629;-66
2024/03/09 12:21:18;;;;;;;15.83;11.20;;;18.70;1.00;;;;;;5075100;28;20500;-67
2024/03/09 12:23:48;;;;;;;17.97;11.57;;;19.10;1.00;;;;;;5062478;28;20490;-67
2024/03/09 12:26:15;;;;;;;17.40;11.50;;;18.30;1.00;;;;;;5054571;28;20479;-66
2024/03/09 12:28:46;;;;;;;18.20;11.23;;;19.00;1.00;;;;;;5054645;28;20450;-66
2024/03/09 12:31:14;;;;;;;18.77;11.60;;;18.80;1.00;;;;;;5060149;28;20826;-66
2024/03/09 12:33:42;;;;;;;17.63;12.53;;;19.20;1.00;;;;;;5056246;28;20478;-66
2024/03/09 12:36:09;;;;;;;16.13;11.27;;;19.30;1.00;;;;;;5065791;28;20540;-67
2024/03/09 12:38:38;;;;;;;17.37;12.13;;;18.90;1.00;;;;;;5067781;28;20454;-66
2024/03/09 12:41:09;;;;;;;17.53;11.00;;;19.40;1.00;;;;;;5056462;28;20534;-67